createdAt,value
2018-05-27T00:00:33.845Z,199.80
2018-05-27T00:01:33.842Z,213.40
2018-05-27T00:02:33.844Z,259.90
2018-05-27T00:03:33.848Z,283.80
2018-05-27T00:04:33.850Z,303.40
2018-05-27T00:05:33.853Z,294.90
2018-05-27T00:06:33.855Z,321.80
2018-05-27T00:07:33.851Z,347.20
2018-05-27T00:08:33.850Z,361.10
2018-05-27T00:09:33.852Z,384.50
2018-05-27T00:10:33.855Z,391.80
2018-05-27T00:11:33.858Z,393.60
2018-05-27T00:12:33.862Z,424.00
2018-05-27T00:13:33.861Z,420.90
2018-05-27T00:14:33.862Z,439.30
2018-05-27T00:15:33.859Z,443.10
2018-05-27T00:16:33.860Z,476.60
2018-05-27T00:17:33.868Z,465.50
2018-05-27T00:18:33.867Z,476.10
2018-05-27T00:19:33.863Z,486.50
2018-05-27T00:20:33.865Z,507.70
2018-05-27T00:21:33.865Z,512.70
2018-05-27T00:22:33.867Z,503.80
2018-05-27T00:23:33.872Z,502.10
2018-05-27T00:24:33.873Z,577.10
2018-05-27T00:25:33.879Z,576.50
2018-05-27T00:26:33.876Z,601.10
2018-05-27T00:27:33.872Z,590.00
2018-05-27T00:28:33.873Z,606.20
2018-05-27T00:29:33.872Z,587.80
2018-05-27T00:30:33.875Z,599.70
2018-05-27T00:31:33.879Z,611.80
2018-05-27T00:32:33.881Z,604.00
2018-05-27T00:33:33.877Z,588.00
2018-05-27T00:34:33.881Z,623.40
2018-05-27T00:35:33.883Z,591.40
2018-05-27T00:36:33.885Z,593.50
2018-05-27T00:37:33.886Z,603.10
2018-05-27T00:38:33.894Z,598.30
2018-05-27T00:39:33.886Z,597.70
2018-05-27T00:40:33.884Z,605.80
2018-05-27T00:41:33.884Z,593.30
2018-05-27T00:42:33.886Z,594.40
2018-05-27T00:43:33.890Z,609.80
2018-05-27T00:44:33.891Z,600.90
2018-05-27T00:45:33.891Z,622.40
2018-05-27T00:46:33.892Z,601.30
2018-05-27T00:47:33.888Z,587.70
2018-05-27T00:48:33.890Z,565.90
2018-05-27T00:49:33.896Z,615.80
2018-05-27T00:50:33.895Z,730.30
2018-05-27T00:51:33.890Z,785.60
2018-05-27T00:52:33.892Z,848.90
2018-05-27T00:53:33.895Z,847.20
2018-05-27T00:54:33.894Z,893.30
2018-05-27T00:55:33.900Z,913.10
2018-05-27T00:56:33.900Z,880.40
2018-05-27T00:57:33.902Z,802.70
2018-05-27T00:58:33.902Z,685.70
2018-05-27T00:59:33.898Z,622.10
2018-05-27T01:00:33.897Z,551.30
2018-05-27T01:01:33.898Z,399.10
2018-05-27T01:02:33.900Z,312.00
2018-05-27T01:03:33.905Z,270.20
2018-05-27T01:04:33.905Z,236.10
2018-05-27T01:05:33.902Z,143.40
2018-05-27T01:06:33.902Z,86.90
2018-05-27T01:07:33.910Z,79.30
2018-05-27T01:08:33.909Z,65.30
2018-05-27T01:09:33.907Z,59.90
2018-05-27T01:10:33.908Z,51.10
2018-05-27T01:11:33.904Z,49.00
2018-05-27T01:12:33.905Z,39.50
2018-05-27T01:13:33.906Z,27.70
2018-05-27T01:14:33.906Z,23.20
2018-05-27T01:15:33.911Z,21.10
2018-05-27T01:16:33.911Z,17.30
2018-05-27T01:17:33.912Z,15.50
2018-05-27T01:18:33.913Z,13.20
2018-05-27T01:19:33.909Z,14.40
2018-05-27T01:20:33.909Z,15.00
2018-05-27T01:21:33.914Z,14.00
2018-05-27T01:22:33.914Z,13.90
2018-05-27T01:23:33.908Z,14.00
2018-05-27T01:24:33.909Z,13.40
2018-05-27T01:25:33.909Z,13.60
2018-05-27T01:26:33.909Z,13.90
2018-05-27T01:27:33.914Z,13.80
2018-05-27T01:28:33.916Z,14.20
2018-05-27T01:29:33.915Z,15.00
2018-05-27T01:30:33.914Z,13.90
2018-05-27T01:31:33.916Z,14.30
2018-05-27T01:32:33.910Z,14.00
2018-05-27T01:33:33.910Z,12.90
2018-05-27T01:34:33.911Z,14.50
2018-05-27T01:35:33.915Z,15.00
2018-05-27T01:36:33.916Z,14.10
2018-05-27T01:37:33.911Z,14.80
2018-05-27T01:38:33.911Z,15.00
2018-05-27T01:39:33.917Z,14.10
2018-05-27T01:40:33.915Z,14.90
2018-05-27T01:41:33.915Z,13.10
2018-05-27T01:42:33.915Z,14.20
2018-05-27T01:43:33.910Z,13.90
2018-05-27T01:44:33.911Z,13.90
2018-05-27T01:45:33.915Z,15.30
2018-05-27T01:46:33.911Z,14.70
2018-05-27T01:47:33.914Z,14.70
2018-05-27T01:48:33.919Z,13.80
2018-05-27T01:49:33.916Z,15.70
2018-05-27T01:50:33.916Z,14.10
2018-05-27T01:51:33.910Z,14.60
2018-05-27T01:52:33.911Z,14.60
2018-05-27T01:53:33.916Z,14.50
2018-05-27T01:54:33.918Z,14.00
2018-05-27T01:55:33.911Z,14.20
2018-05-27T01:56:33.912Z,14.60
2018-05-27T01:57:33.913Z,14.00
2018-05-27T01:58:33.911Z,13.90
2018-05-27T01:59:33.914Z,14.10
2018-05-27T02:00:33.913Z,14.50
2018-05-27T02:01:33.914Z,14.60
2018-05-27T02:02:33.918Z,13.70
2018-05-27T02:03:33.909Z,14.80
2018-05-27T02:04:33.909Z,15.10
2018-05-27T02:05:33.909Z,13.30
2018-05-27T02:06:33.909Z,14.30
2018-05-27T02:07:33.912Z,14.60
2018-05-27T02:08:33.912Z,14.00
2018-05-27T02:09:33.912Z,14.80
2018-05-27T02:10:33.910Z,14.00
2018-05-27T02:11:33.912Z,15.00
2018-05-27T02:12:33.911Z,14.60
2018-05-27T02:13:33.913Z,14.60
2018-05-27T02:14:33.913Z,14.80
2018-05-27T02:15:33.906Z,14.70
2018-05-27T02:16:33.907Z,13.90
2018-05-27T02:17:33.907Z,14.80
2018-05-27T02:18:33.906Z,15.20
2018-05-27T02:19:33.911Z,13.90
2018-05-27T02:20:33.910Z,16.10
2018-05-27T02:21:33.909Z,16.50
2018-05-27T02:22:33.910Z,13.40
2018-05-27T02:23:33.904Z,14.20
2018-05-27T02:24:33.903Z,14.40
2018-05-27T02:25:33.908Z,13.70
2018-05-27T02:26:33.908Z,14.70
2018-05-27T02:27:33.902Z,14.80
2018-05-27T02:28:33.903Z,14.00
2018-05-27T02:29:33.904Z,12.70
2018-05-27T02:30:33.902Z,15.00
2018-05-27T02:31:33.907Z,14.50
2018-05-27T02:32:33.913Z,13.60
2018-05-27T02:33:33.905Z,15.60
2018-05-27T02:34:33.909Z,15.00
2018-05-27T02:35:33.902Z,15.00
2018-05-27T02:36:33.902Z,14.80
2018-05-27T02:37:33.899Z,15.00
2018-05-27T02:38:33.901Z,15.20
2018-05-27T02:39:33.902Z,14.40
2018-05-27T02:40:33.902Z,14.30
2018-05-27T02:41:33.899Z,13.80
2018-05-27T02:42:33.899Z,14.20
2018-05-27T02:43:33.901Z,15.60
2018-05-27T02:44:33.901Z,14.10
2018-05-27T02:45:33.903Z,15.60
2018-05-27T02:46:33.904Z,15.20
2018-05-27T02:47:33.895Z,14.80
2018-05-27T02:48:33.895Z,14.80
2018-05-27T02:49:33.896Z,15.50
2018-05-27T02:50:33.895Z,14.70
2018-05-27T02:51:33.900Z,14.80
2018-05-27T02:52:33.902Z,15.20
2018-05-27T02:53:33.897Z,14.10
2018-05-27T02:54:33.897Z,13.10
2018-05-27T02:55:33.899Z,15.00
2018-05-27T02:56:33.892Z,14.50
2018-05-27T02:57:33.897Z,15.80
2018-05-27T02:58:33.896Z,15.30
2018-05-27T02:59:33.890Z,14.70
2018-05-27T03:00:33.894Z,13.90
2018-05-27T03:01:33.890Z,13.80
2018-05-27T03:02:33.891Z,14.30
2018-05-27T03:03:33.893Z,16.40
2018-05-27T03:04:33.895Z,15.80
2018-05-27T03:05:33.896Z,16.20
2018-05-27T03:06:33.892Z,15.40
2018-05-27T03:07:33.886Z,15.80
2018-05-27T03:08:33.887Z,15.50
2018-05-27T03:09:33.890Z,14.80
2018-05-27T03:10:33.887Z,15.00
2018-05-27T03:11:33.891Z,14.90
2018-05-27T03:12:33.891Z,14.10
2018-05-27T03:13:33.884Z,15.10
2018-05-27T03:14:33.887Z,15.80
2018-05-27T03:15:33.887Z,14.30
2018-05-27T03:16:33.887Z,14.40
2018-05-27T03:17:33.886Z,14.70
2018-05-27T03:18:33.886Z,13.40
2018-05-27T03:19:33.880Z,15.60
2018-05-27T03:20:33.880Z,15.10
2018-05-27T03:21:33.883Z,15.90
2018-05-27T03:22:33.879Z,15.60
2018-05-27T03:23:33.882Z,15.50
2018-05-27T03:24:33.882Z,14.90
2018-05-27T03:25:33.883Z,16.10
2018-05-27T03:26:33.881Z,16.20
2018-05-27T03:27:33.875Z,15.40
2018-05-27T03:28:33.874Z,15.50
2018-05-27T03:29:33.880Z,14.60
2018-05-27T03:30:33.880Z,14.80
2018-05-27T03:31:33.873Z,15.40
2018-05-27T03:32:33.872Z,15.60
2018-05-27T03:33:33.873Z,14.70
2018-05-27T03:34:33.871Z,15.40
2018-05-27T03:35:33.874Z,14.90
2018-05-27T03:36:33.873Z,15.80
2018-05-27T03:37:33.874Z,16.40
2018-05-27T03:38:33.873Z,14.60
2018-05-27T03:39:33.868Z,14.90
2018-05-27T03:40:33.867Z,15.90
2018-05-27T03:41:33.867Z,14.70
2018-05-27T03:42:33.866Z,14.30
2018-05-27T03:43:33.871Z,15.70
2018-05-27T03:44:33.873Z,14.60
2018-05-27T03:45:33.864Z,15.30
2018-05-27T03:46:33.863Z,14.60
2018-05-27T03:47:33.872Z,15.90
2018-05-27T03:48:33.868Z,16.20
2018-05-27T03:49:33.866Z,14.70
2018-05-27T03:50:33.865Z,14.90
2018-05-27T03:51:33.863Z,15.40
2018-05-27T03:52:33.859Z,16.40
2018-05-27T03:53:33.859Z,15.50
2018-05-27T03:54:33.859Z,14.30
2018-05-27T03:55:33.863Z,15.70
2018-05-27T03:56:33.861Z,15.00
2018-05-27T03:57:33.863Z,15.40
2018-05-27T03:58:33.863Z,14.70
2018-05-27T03:59:33.855Z,14.90
2018-05-27T04:00:33.855Z,15.50
2018-05-27T04:01:33.860Z,15.90
2018-05-27T04:02:33.861Z,15.50
2018-05-27T04:03:33.854Z,15.50
2018-05-27T04:04:33.853Z,15.40
2018-05-27T04:05:33.853Z,15.10
2018-05-27T04:06:33.853Z,14.40
2018-05-27T04:07:33.856Z,15.80
2018-05-27T04:08:33.857Z,14.50
2018-05-27T04:09:33.856Z,14.30
2018-05-27T04:10:33.856Z,14.70
2018-05-27T04:11:33.850Z,15.90
2018-05-27T04:12:33.849Z,16.30
2018-05-27T04:13:33.854Z,15.90
2018-05-27T04:14:33.850Z,15.40
2018-05-27T04:15:33.860Z,15.80
2018-05-27T04:16:33.855Z,15.70
2018-05-27T04:17:33.849Z,15.40
2018-05-27T04:18:33.850Z,15.60
2018-05-27T04:19:33.854Z,14.90
2018-05-27T04:20:33.854Z,15.30
2018-05-27T04:21:33.853Z,16.30
2018-05-27T04:22:33.853Z,15.90
2018-05-27T04:23:33.848Z,14.90
2018-05-27T04:24:33.848Z,15.70
2018-05-27T04:25:33.849Z,15.30
2018-05-27T04:26:33.848Z,15.00
2018-05-27T04:27:33.852Z,16.00
2018-05-27T04:28:33.917Z,14.80
2018-05-27T04:29:33.855Z,14.40
2018-05-27T04:30:33.854Z,15.10
2018-05-27T04:31:33.850Z,15.60
2018-05-27T04:32:33.849Z,14.60
2018-05-27T04:33:33.857Z,13.80
2018-05-27T04:34:33.856Z,15.50
2018-05-27T04:35:33.851Z,15.20
2018-05-27T04:36:33.880Z,15.80
2018-05-27T04:37:33.850Z,16.00
2018-05-27T04:38:33.852Z,15.80
2018-05-27T04:39:33.856Z,15.30
2018-05-27T04:40:33.856Z,14.90
2018-05-27T04:41:33.857Z,16.80
2018-05-27T04:42:33.858Z,15.80
2018-05-27T04:43:33.853Z,15.70
2018-05-27T04:44:33.856Z,15.90
2018-05-27T04:45:33.855Z,16.00
2018-05-27T04:46:33.856Z,16.60
2018-05-27T04:47:33.861Z,16.90
2018-05-27T04:48:33.862Z,16.60
2018-05-27T04:49:33.857Z,18.40
2018-05-27T04:50:33.858Z,18.70
2018-05-27T04:51:33.863Z,19.30
2018-05-27T04:52:33.863Z,18.50
2018-05-27T04:53:33.867Z,27.10
2018-05-27T04:54:33.866Z,30.80
2018-05-27T04:55:33.861Z,36.20
2018-05-27T04:56:33.863Z,57.90
2018-05-27T04:57:33.865Z,75.90
2018-05-27T04:58:33.867Z,47.40
2018-05-27T04:59:33.872Z,80.40
2018-05-27T05:00:33.874Z,130.90
2018-05-27T05:01:33.877Z,207.50
2018-05-27T05:02:33.882Z,150.40
2018-05-27T05:03:33.876Z,148.80
2018-05-27T05:04:33.878Z,126.40
2018-05-27T05:05:33.887Z,59.50
2018-05-27T05:06:33.888Z,34.30
2018-05-27T05:07:33.885Z,35.90
2018-05-27T05:08:33.889Z,164.60
2018-05-27T05:09:33.926Z,71.70
2018-05-27T05:10:33.893Z,118.10
2018-05-27T05:11:33.899Z,80.10
2018-05-27T05:12:33.902Z,63.90
2018-05-27T05:13:33.906Z,124.40
2018-05-27T05:14:33.912Z,87.30
2018-05-27T05:15:33.905Z,69.70
2018-05-27T05:16:33.909Z,92.10
2018-05-27T05:17:33.911Z,123.50
2018-05-27T05:18:33.914Z,86.20
2018-05-27T05:19:33.921Z,110.50
2018-05-27T05:20:33.923Z,120.50
2018-05-27T05:21:33.921Z,87.60
2018-05-27T05:22:33.923Z,96.10
2018-05-27T05:23:33.930Z,118.10
2018-05-27T05:24:33.932Z,161.30
2018-05-27T05:25:33.936Z,339.50
2018-05-27T05:26:33.940Z,654.80
2018-05-27T05:27:33.936Z,811.40
2018-05-27T05:28:33.940Z,678.90
2018-05-27T05:29:33.943Z,762.90
2018-05-27T05:30:33.945Z,870.00
2018-05-27T05:31:33.952Z,808.40
2018-05-27T05:32:33.956Z,789.60
2018-05-27T05:33:33.961Z,604.80
2018-05-27T05:34:33.962Z,426.70
2018-05-27T05:35:33.960Z,455.40
2018-05-27T05:36:33.964Z,543.40
2018-05-27T05:37:33.972Z,548.40
2018-05-27T05:38:33.977Z,549.20
2018-05-27T05:39:33.976Z,534.80
2018-05-27T05:40:33.981Z,540.20
2018-05-27T05:41:33.984Z,551.20
2018-05-27T05:42:33.989Z,507.60
2018-05-27T05:43:33.998Z,509.70
2018-05-27T05:44:34.002Z,499.20
2018-05-27T05:45:34.006Z,497.00
2018-05-27T05:46:34.012Z,447.20
2018-05-27T05:47:34.009Z,517.70
2018-05-27T05:48:34.020Z,467.50
2018-05-27T05:49:34.020Z,486.70
2018-05-27T05:50:34.073Z,509.70
2018-05-27T05:51:34.032Z,478.00
2018-05-27T05:52:34.039Z,459.40
2018-05-27T05:53:34.035Z,488.10
2018-05-27T05:54:34.040Z,494.70
2018-05-27T05:55:34.047Z,451.60
2018-05-27T05:56:34.052Z,418.50
2018-05-27T05:57:34.061Z,438.10
2018-05-27T05:58:34.061Z,443.70
2018-05-27T05:59:34.061Z,433.40
2018-05-27T06:00:34.064Z,392.80
2018-05-27T06:01:34.068Z,451.30
2018-05-27T06:02:34.072Z,481.90
2018-05-27T06:03:34.081Z,595.40
2018-05-27T06:04:34.086Z,652.00
2018-05-27T06:05:34.089Z,710.10
2018-05-27T06:06:34.092Z,999.90
2018-05-27T06:07:34.095Z,999.90
2018-05-27T06:08:34.096Z,674.00
2018-05-27T06:09:34.104Z,550.00
2018-05-27T06:10:34.108Z,563.60
2018-05-27T06:11:34.107Z,487.40
2018-05-27T06:12:34.116Z,345.30
2018-05-27T06:13:34.183Z,386.30
2018-05-27T06:14:34.123Z,448.60
2018-05-27T06:15:34.129Z,536.10
2018-05-27T06:16:34.139Z,441.40
2018-05-27T06:17:34.138Z,164.20
2018-05-27T06:18:34.143Z,441.40
2018-05-27T06:19:34.172Z,293.80
2018-05-27T06:20:34.148Z,181.30
2018-05-27T06:21:34.157Z,14.20
2018-05-27T06:22:34.165Z,9.00
2018-05-27T06:23:34.170Z,8.60
2018-05-27T06:24:34.175Z,7.90
2018-05-27T06:25:34.177Z,8.00
2018-05-27T06:26:34.184Z,7.80
2018-05-27T06:27:34.195Z,7.50
2018-05-27T06:28:34.202Z,7.80
2018-05-27T06:29:34.209Z,7.40
2018-05-27T06:30:34.222Z,7.50
2018-05-27T06:31:34.226Z,7.80
2018-05-27T06:32:34.229Z,7.40
2018-05-27T06:33:34.237Z,7.30
2018-05-27T06:34:34.252Z,7.10
2018-05-27T06:35:34.260Z,7.00
2018-05-27T06:36:34.268Z,7.30
2018-05-27T06:37:34.278Z,7.70
2018-05-27T06:38:34.287Z,7.80
2018-05-27T06:39:34.291Z,8.10
2018-05-27T06:40:34.300Z,8.00
2018-05-27T06:41:34.316Z,8.30
2018-05-27T06:42:34.325Z,7.80
2018-05-27T06:43:34.329Z,8.30
2018-05-27T06:44:34.339Z,8.20
2018-05-27T06:45:34.348Z,7.90
2018-05-27T06:46:34.358Z,7.00
2018-05-27T06:47:34.371Z,7.80
2018-05-27T06:48:34.381Z,7.60
2018-05-27T06:49:34.393Z,7.50
2018-05-27T06:50:34.402Z,7.70
2018-05-27T06:51:34.407Z,7.10
2018-05-27T06:52:34.419Z,7.20
2018-05-27T06:53:34.428Z,7.20
2018-05-27T06:54:34.439Z,6.20
2018-05-27T06:55:34.453Z,7.90
2018-05-27T06:56:34.465Z,7.10
2018-05-27T06:57:34.469Z,7.00
2018-05-27T06:58:34.481Z,7.50
2018-05-27T06:59:34.493Z,7.60
2018-05-27T07:00:34.505Z,8.40
2018-05-27T07:01:34.512Z,8.80
2018-05-27T07:02:34.522Z,8.40
2018-05-27T07:03:34.527Z,8.30
2018-05-27T07:04:34.634Z,7.90
2018-05-27T07:05:34.545Z,8.30
2018-05-27T07:06:34.558Z,8.70
2018-05-27T07:07:34.567Z,8.50
2018-05-27T07:08:34.577Z,9.70
2018-05-27T07:09:34.594Z,8.10
2018-05-27T07:10:34.597Z,7.90
2018-05-27T07:11:34.603Z,7.50
2018-05-27T07:12:34.609Z,7.90
2018-05-27T07:13:34.623Z,8.10
2018-05-27T07:14:34.632Z,6.70
2018-05-27T07:15:34.636Z,7.50
2018-05-27T07:16:34.650Z,6.80
2018-05-27T07:17:34.655Z,6.40
2018-05-27T07:18:34.665Z,5.40
2018-05-27T07:19:34.681Z,5.90
2018-05-27T07:20:34.689Z,5.20
2018-05-27T07:21:34.700Z,4.60
2018-05-27T07:22:34.712Z,4.90
2018-05-27T07:23:34.716Z,4.40
2018-05-27T07:24:34.728Z,4.80
2018-05-27T07:25:34.743Z,4.90
2018-05-27T07:26:34.750Z,5.30
2018-05-27T07:27:34.765Z,5.80
2018-05-27T07:28:34.776Z,5.10
2018-05-27T07:29:34.787Z,5.60
2018-05-27T07:30:34.805Z,6.20
2018-05-27T07:31:34.809Z,5.10
2018-05-27T07:32:34.821Z,4.90
2018-05-27T07:33:34.834Z,5.00
2018-05-27T07:34:34.894Z,4.30
2018-05-27T07:35:34.852Z,4.00
2018-05-27T07:36:34.866Z,4.10
2018-05-27T07:37:34.878Z,4.30
2018-05-27T07:38:34.891Z,3.80
2018-05-27T07:39:34.909Z,3.90
2018-05-27T07:40:34.922Z,4.10
2018-05-27T07:41:34.934Z,3.30
2018-05-27T07:42:34.950Z,3.10
2018-05-27T07:43:34.958Z,3.50
2018-05-27T07:44:34.973Z,3.60
2018-05-27T07:45:34.990Z,3.40
2018-05-27T07:46:35.016Z,3.50
2018-05-27T07:47:35.015Z,2.70
2018-05-27T07:48:35.030Z,2.80
2018-05-27T07:49:35.045Z,2.80
2018-05-27T07:50:35.061Z,2.60
2018-05-27T07:51:35.082Z,2.90
2018-05-27T07:52:35.111Z,2.90
2018-05-27T07:53:35.115Z,2.70
2018-05-27T07:54:35.128Z,2.60
2018-05-27T07:55:35.140Z,2.60
2018-05-27T07:56:35.156Z,2.60
2018-05-27T07:57:35.173Z,2.60
2018-05-27T07:58:35.191Z,2.50
2018-05-27T07:59:35.209Z,2.70
2018-05-27T08:00:35.227Z,2.60
2018-05-27T08:01:35.239Z,2.70
2018-05-27T08:02:35.256Z,2.70
2018-05-27T08:03:35.277Z,2.70
2018-05-27T08:04:35.297Z,2.70
2018-05-27T08:05:35.311Z,2.70
2018-05-27T08:06:35.330Z,2.60
2018-05-27T08:07:35.342Z,2.90
2018-05-27T08:08:35.358Z,2.60
2018-05-27T08:09:35.377Z,2.50
2018-05-27T08:10:35.394Z,2.60
2018-05-27T08:11:35.417Z,2.70
2018-05-27T08:12:35.434Z,2.50
2018-05-27T08:13:35.451Z,2.60
2018-05-27T08:14:35.469Z,2.60
2018-05-27T08:15:35.481Z,3.10
2018-05-27T08:16:35.500Z,2.60
2018-05-27T08:17:35.522Z,2.50
2018-05-27T08:18:35.542Z,2.50
2018-05-27T08:19:35.553Z,2.50
2018-05-27T08:20:35.577Z,2.30
2018-05-27T08:21:35.590Z,2.70
2018-05-27T08:22:35.612Z,2.70
2018-05-27T08:23:35.632Z,2.60
2018-05-27T08:24:35.652Z,2.60
2018-05-27T08:25:35.670Z,2.60
2018-05-27T08:26:35.686Z,2.50
2018-05-27T08:27:35.700Z,2.70
2018-05-27T08:28:35.718Z,2.70
2018-05-27T08:29:35.737Z,2.70
2018-05-27T08:30:35.756Z,2.60
2018-05-27T08:31:35.779Z,2.50
2018-05-27T08:32:35.799Z,2.60
2018-05-27T08:33:35.813Z,2.70
2018-05-27T08:34:35.834Z,2.80
2018-05-27T08:35:35.856Z,2.80
2018-05-27T08:36:35.876Z,2.40
2018-05-27T08:37:35.896Z,2.40
2018-05-27T08:38:35.915Z,2.80
2018-05-27T08:39:35.931Z,2.60
2018-05-27T08:40:35.949Z,2.70
2018-05-27T08:41:35.969Z,2.70
2018-05-27T08:42:35.989Z,2.50
2018-05-27T08:43:36.013Z,2.40
2018-05-27T08:44:36.033Z,2.50
2018-05-27T08:45:36.053Z,2.60
2018-05-27T08:46:36.072Z,2.70
2018-05-27T08:47:36.090Z,2.50
2018-05-27T08:48:36.107Z,2.60
2018-05-27T08:49:36.131Z,2.70
2018-05-27T08:50:36.151Z,2.60
2018-05-27T08:51:36.166Z,2.50
2018-05-27T08:52:36.185Z,2.70
2018-05-27T08:53:36.206Z,2.60
2018-05-27T08:54:36.226Z,2.80
2018-05-27T08:55:36.248Z,2.70
2018-05-27T08:56:36.269Z,2.60
2018-05-27T08:57:36.288Z,2.70
2018-05-27T08:58:36.335Z,2.70
2018-05-27T08:59:36.321Z,2.70
2018-05-27T09:00:36.341Z,2.80
2018-05-27T09:01:36.360Z,2.70
2018-05-27T09:02:36.379Z,2.60
2018-05-27T09:03:36.443Z,2.70
2018-05-27T09:04:36.424Z,2.90
2018-05-27T09:05:36.445Z,2.80
2018-05-27T09:06:36.458Z,2.60
2018-05-27T09:07:36.479Z,2.80
2018-05-27T09:08:36.498Z,2.70
2018-05-27T09:09:36.516Z,2.70
2018-05-27T09:10:36.536Z,2.70
2018-05-27T09:11:36.550Z,2.70
2018-05-27T09:12:36.570Z,2.70
2018-05-27T09:13:36.594Z,2.60
2018-05-27T09:14:36.607Z,2.70
2018-05-27T09:15:36.630Z,2.60
2018-05-27T09:16:36.652Z,2.60
2018-05-27T09:17:36.670Z,2.70
2018-05-27T09:18:36.689Z,2.70
2018-05-27T09:19:36.703Z,2.50
2018-05-27T09:20:36.723Z,2.60
2018-05-27T09:21:36.748Z,2.40
2018-05-27T09:22:36.768Z,2.60
2018-05-27T09:23:36.783Z,2.80
2018-05-27T09:24:36.802Z,2.80
2018-05-27T09:25:36.819Z,3.30
2018-05-27T09:26:36.838Z,3.70
2018-05-27T09:27:36.860Z,3.60
2018-05-27T09:28:36.878Z,4.00
2018-05-27T09:29:36.896Z,4.10
2018-05-27T09:30:36.914Z,4.40
2018-05-27T09:31:36.926Z,4.90
2018-05-27T09:32:36.943Z,4.80
2018-05-27T09:33:36.966Z,5.40
2018-05-27T09:34:36.975Z,5.00
2018-05-27T09:35:36.998Z,6.20
2018-05-27T09:36:37.011Z,5.70
2018-05-27T09:37:37.021Z,5.70
2018-05-27T09:38:37.039Z,6.70
2018-05-27T09:39:37.063Z,7.00
2018-05-27T09:40:37.071Z,6.90
2018-05-27T09:41:37.093Z,6.40
2018-05-27T09:42:37.101Z,7.00
2018-05-27T09:43:37.111Z,6.30
2018-05-27T09:44:37.126Z,5.50
2018-05-27T09:45:37.139Z,5.60
2018-05-27T09:46:37.153Z,5.80
2018-05-27T09:47:37.178Z,4.80
2018-05-27T09:48:37.187Z,5.40
2018-05-27T09:49:37.201Z,4.70
2018-05-27T09:50:37.216Z,4.40
2018-05-27T09:51:37.227Z,4.30
2018-05-27T09:52:37.242Z,4.70
2018-05-27T09:53:37.261Z,5.30
2018-05-27T09:54:37.276Z,4.00
2018-05-27T09:55:37.289Z,4.10
2018-05-27T09:56:37.303Z,3.50
2018-05-27T09:57:37.319Z,3.70
2018-05-27T09:58:37.337Z,3.70
2018-05-27T09:59:37.356Z,3.20
2018-05-27T10:00:37.372Z,3.40
2018-05-27T10:01:37.388Z,3.10
2018-05-27T10:02:37.406Z,3.60
2018-05-27T10:03:37.420Z,3.30
2018-05-27T10:04:37.433Z,3.10
2018-05-27T10:05:37.451Z,3.00
2018-05-27T10:06:37.468Z,3.20
2018-05-27T10:07:37.489Z,3.10
2018-05-27T10:08:37.506Z,3.00
2018-05-27T10:09:37.520Z,2.80
2018-05-27T10:10:37.538Z,2.80
2018-05-27T10:11:37.567Z,2.80
2018-05-27T10:12:37.579Z,2.70
2018-05-27T10:13:37.597Z,2.80
2018-05-27T10:14:37.617Z,2.80
2018-05-27T10:15:37.629Z,3.10
2018-05-27T10:16:37.647Z,3.00
2018-05-27T10:17:37.667Z,2.90
2018-05-27T10:18:37.685Z,3.00
2018-05-27T10:19:37.707Z,3.00
2018-05-27T10:20:37.726Z,3.70
2018-05-27T10:21:37.743Z,3.40
2018-05-27T10:22:37.762Z,3.10
2018-05-27T10:23:37.774Z,3.10
2018-05-27T10:24:37.792Z,3.20
2018-05-27T10:25:37.815Z,3.10
2018-05-27T10:26:37.834Z,3.40
2018-05-27T10:27:37.846Z,3.00
2018-05-27T10:28:37.865Z,3.00
2018-05-27T10:29:37.885Z,3.10
2018-05-27T10:30:37.901Z,3.20
2018-05-27T10:31:37.923Z,3.40
2018-05-27T10:32:37.942Z,3.30
2018-05-27T10:33:37.960Z,3.40
2018-05-27T10:34:37.977Z,3.50
2018-05-27T10:35:37.991Z,3.30
2018-05-27T10:36:38.009Z,3.60
2018-05-27T10:37:38.028Z,3.50
2018-05-27T10:38:38.046Z,3.50
2018-05-27T10:39:38.067Z,3.40
2018-05-27T10:40:38.089Z,3.60
2018-05-27T10:41:38.101Z,3.40
2018-05-27T10:42:38.123Z,3.20
2018-05-27T10:43:38.143Z,3.30
2018-05-27T10:44:38.162Z,3.00
2018-05-27T10:45:38.182Z,3.00
2018-05-27T10:46:38.199Z,3.20
2018-05-27T10:47:38.213Z,3.00
2018-05-27T10:48:38.232Z,3.20
2018-05-27T10:49:38.252Z,3.40
2018-05-27T10:50:38.273Z,3.40
2018-05-27T10:51:38.293Z,3.40
2018-05-27T10:52:38.316Z,3.60
2018-05-27T10:53:38.333Z,3.70
2018-05-27T10:54:38.352Z,4.00
2018-05-27T10:55:38.364Z,4.50
2018-05-27T10:56:38.381Z,4.90
2018-05-27T10:57:38.405Z,5.10
2018-05-27T10:58:38.423Z,5.30
2018-05-27T10:59:38.433Z,6.20
2018-05-27T11:00:38.450Z,5.60
2018-05-27T11:01:38.514Z,6.60
2018-05-27T11:02:38.482Z,6.20
2018-05-27T11:03:38.502Z,6.20
2018-05-27T11:04:38.519Z,6.40
2018-05-27T11:05:38.556Z,5.70
2018-05-27T11:06:38.550Z,6.60
2018-05-27T11:07:38.559Z,6.20
2018-05-27T11:08:38.573Z,6.00
2018-05-27T11:09:38.589Z,6.50
2018-05-27T11:10:38.603Z,7.80
2018-05-27T11:11:38.622Z,7.60
2018-05-27T11:12:38.637Z,8.20
2018-05-27T11:13:38.645Z,8.50
2018-05-27T11:14:38.659Z,7.50
2018-05-27T11:15:38.677Z,7.90
2018-05-27T11:16:38.696Z,7.10
2018-05-27T11:17:38.706Z,6.70
2018-05-27T11:18:38.716Z,7.70
2018-05-27T11:19:38.724Z,7.70
2018-05-27T11:20:38.755Z,8.20
2018-05-27T11:21:38.749Z,8.30
2018-05-27T11:22:38.761Z,8.30
2018-05-27T11:23:38.778Z,8.40
2018-05-27T11:24:38.789Z,7.60
2018-05-27T11:25:38.803Z,7.30
2018-05-27T11:26:38.814Z,7.70
2018-05-27T11:27:38.819Z,7.80
2018-05-27T11:28:38.831Z,7.90
2018-05-27T11:29:38.848Z,7.10
2018-05-27T11:30:38.858Z,6.70
2018-05-27T11:31:38.863Z,6.30
2018-05-27T11:32:38.875Z,6.60
2018-05-27T11:33:38.885Z,7.10
2018-05-27T11:34:38.897Z,7.70
2018-05-27T11:35:38.910Z,7.10
2018-05-27T11:36:38.926Z,8.30
2018-05-27T11:37:38.932Z,9.00
2018-05-27T11:38:38.943Z,9.00
2018-05-27T11:39:38.948Z,8.60
2018-05-27T11:40:38.958Z,8.30
2018-05-27T11:41:38.969Z,7.80
2018-05-27T11:42:38.980Z,7.80
2018-05-27T11:43:38.993Z,8.90
2018-05-27T11:44:39.004Z,8.40
2018-05-27T11:45:39.009Z,8.40
2018-05-27T11:46:39.019Z,8.30
2018-05-27T11:47:39.032Z,8.70
2018-05-27T11:48:39.060Z,9.60
2018-05-27T11:49:39.052Z,8.70
2018-05-27T11:50:39.062Z,8.90
2018-05-27T11:51:39.065Z,11.20
2018-05-27T11:52:39.083Z,245.10
2018-05-27T11:53:39.083Z,546.60
2018-05-27T11:54:39.092Z,712.90
2018-05-27T11:55:39.105Z,25.10
2018-05-27T11:56:39.113Z,14.90
2018-05-27T11:57:39.120Z,20.30
2018-05-27T11:58:39.128Z,17.50
2018-05-27T11:59:39.131Z,19.50
2018-05-27T12:00:39.139Z,19.30
2018-05-27T12:01:39.180Z,19.10
2018-05-27T12:02:39.158Z,18.60
2018-05-27T12:03:39.160Z,18.90
2018-05-27T12:04:39.168Z,357.40
2018-05-27T12:05:39.175Z,139.30
2018-05-27T12:06:39.181Z,393.80
2018-05-27T12:07:39.195Z,92.50
2018-05-27T12:08:39.200Z,446.20
2018-05-27T12:09:39.330Z,66.70
2018-05-27T12:10:39.212Z,482.60
2018-05-27T12:11:39.307Z,32.10
2018-05-27T12:12:39.220Z,82.30
2018-05-27T12:13:39.226Z,41.00
2018-05-27T12:14:39.232Z,573.80
2018-05-27T12:15:39.243Z,832.90
2018-05-27T12:16:39.249Z,524.60
2018-05-27T12:17:39.251Z,538.20
2018-05-27T12:18:39.258Z,475.00
2018-05-27T12:19:39.267Z,442.70
2018-05-27T12:20:39.274Z,243.60
2018-05-27T12:21:39.281Z,204.10
2018-05-27T12:22:39.294Z,329.80
2018-05-27T12:23:39.289Z,34.40
2018-05-27T12:24:39.295Z,15.20
2018-05-27T12:25:39.302Z,12.80
2018-05-27T12:26:39.308Z,45.50
2018-05-27T12:27:39.319Z,25.80
2018-05-27T12:28:39.325Z,69.10
2018-05-27T12:29:39.364Z,25.00
2018-05-27T12:30:39.339Z,12.10
2018-05-27T12:31:39.340Z,13.70
2018-05-27T12:32:39.347Z,11.10
2018-05-27T12:33:39.359Z,12.50
2018-05-27T12:34:39.365Z,10.80
2018-05-27T12:35:39.367Z,15.40
2018-05-27T12:36:39.376Z,11.30
2018-05-27T12:37:39.381Z,11.10
2018-05-27T12:38:39.388Z,11.30
2018-05-27T12:39:39.399Z,11.20
2018-05-27T12:40:39.407Z,11.70
2018-05-27T12:41:39.412Z,12.00
2018-05-27T12:42:39.421Z,11.60
2018-05-27T12:43:39.421Z,10.80
2018-05-27T12:44:39.429Z,10.60
2018-05-27T12:45:39.437Z,10.40
2018-05-27T12:46:39.443Z,11.20
2018-05-27T12:47:39.458Z,11.20
2018-05-27T12:48:39.460Z,12.00
2018-05-27T12:49:39.464Z,13.80
2018-05-27T12:50:39.471Z,65.70
2018-05-27T12:51:39.492Z,228.10
2018-05-27T12:52:39.488Z,314.20
2018-05-27T12:53:39.497Z,348.30
2018-05-27T12:54:39.506Z,384.60
2018-05-27T12:55:39.507Z,415.40
2018-05-27T12:56:39.512Z,501.10
2018-05-27T12:57:39.520Z,480.40
2018-05-27T12:58:39.525Z,145.50